• Join FlightAware (Why Join?)
  • Login
  • US Flag 
08:38PM EDT


 

Airport Tracker/Info


-or-


 

Live Flight TrackerFlight Track Log ✈ CSH9219 ✈ 30-Oct-2013 ✈ ZWWW / URC - ZWTN / HTN

Flight Track Log - Related Links

Times and Time Zones

All times are in EDT time to prevent confusion due to time zone crossing. See the CSH9219 flight status page for this flight to view local times or setup timezone preferences in your user account.

Time Position Orientation Groundspeed Altitude Reporting Facility
EDT Latitude Longitude Course Direction KTS MPH feet Rate Location/Type
07:26AM 43.3243 86.7391 223° Southwest  Level Estimated
07:27AM 43.2511 86.6482 222° Southwest  Level Estimated
07:28AM 43.1778 86.5575 222° Southwest  Level Estimated
07:29AM 43.1045 86.4670 222° Southwest  Level Estimated
07:30AM 43.0311 86.3768 222° Southwest  Level Estimated
07:31AM 42.9576 86.2867 222° Southwest  Level Estimated
07:32AM 42.8841 86.1969 222° Southwest  Level Estimated
07:33AM 42.8105 86.1073 222° Southwest  Level Estimated
07:34AM 42.7368 86.0179 222° Southwest  Level Estimated
07:35AM 42.6631 85.9287 222° Southwest  Level Estimated
07:36AM 42.5892 85.8398 222° Southwest  Level Estimated
07:37AM 42.5154 85.7510 222° Southwest  Level Estimated
07:38AM 42.4414 85.6625 221° Southwest  Level Estimated
07:39AM 42.3674 85.5741 221° Southwest  Level Estimated
07:40AM 42.2933 85.4860 221° Southwest  Level Estimated
07:41AM 42.2191 85.3981 221° Southwest  Level Estimated
07:42AM 42.1449 85.3103 221° Southwest  Level Estimated
07:43AM 42.0706 85.2228 221° Southwest  Level Estimated
07:44AM 41.9963 85.1355 221° Southwest  Level Estimated
07:45AM 41.9218 85.0484 221° Southwest  Level Estimated
07:46AM 41.8474 84.9615 221° Southwest  Level Estimated
07:47AM 41.7728 84.8748 221° Southwest  Level Estimated
07:48AM 41.6982 84.7883 221° Southwest  Level Estimated
07:49AM 41.6235 84.7020 221° Southwest  Level Estimated
07:50AM 41.5488 84.6159 221° Southwest  Level Estimated
07:51AM 41.4739 84.5300 221° Southwest  Level Estimated
07:52AM 41.3991 84.4443 221° Southwest  Level Estimated
07:53AM 41.3241 84.3588 221° Southwest  Level Estimated
07:54AM 41.2491 84.2735 221° Southwest  Level Estimated
07:55AM 41.1741 84.1884 220° Southwest  Level Estimated
07:56AM 41.0989 84.1035 220° Southwest  Level Estimated
07:57AM 41.0237 84.0188 220° Southwest  Level Estimated
07:58AM 40.9485 83.9342 220° Southwest  Level Estimated
07:59AM 40.8732 83.8499 220° Southwest  Level Estimated
08:00AM 40.7978 83.7657 220° Southwest  Level Estimated
08:01AM 40.7224 83.6818 220° Southwest  Level Estimated
08:02AM 40.6469 83.5980 220° Southwest  Level Estimated
08:03AM 40.5713 83.5145 220° Southwest  Level Estimated
08:04AM 40.4957 83.4311 220° Southwest  Level Estimated
08:05AM 40.4200 83.3479 220° Southwest  Level Estimated
08:06AM 40.3443 83.2649 220° Southwest  Level Estimated
08:07AM 40.2685 83.1821 220° Southwest  Level Estimated
08:08AM 40.1926 83.0994 220° Southwest  Level Estimated
08:09AM 40.1167 83.0170 220° Southwest  Level Estimated
08:10AM 40.0407 82.9347 220° Southwest  Level Estimated
08:11AM 39.9647 82.8526 220° Southwest  Level Estimated
08:12AM 39.8886 82.7707 220° Southwest  Level Estimated
08:13AM 39.8125 82.6890 220° Southwest  Level Estimated
08:14AM 39.7363 82.6075 219° Southwest  Level Estimated
08:15AM 39.6600 82.5261 219° Southwest  Level Estimated
08:16AM 39.5837 82.4449 219° Southwest  Level Estimated
08:17AM 39.5074 82.3639 219° Southwest  Level Estimated
08:18AM 39.4309 82.2831 219° Southwest  Level Estimated
08:19AM 39.3544 82.2024 219° Southwest  Level Estimated
08:20AM 39.2779 82.1220 219° Southwest  Level Estimated
08:21AM 39.2013 82.0417 219° Southwest  Level Estimated
08:22AM 39.1247 81.9615 219° Southwest  Level Estimated
08:23AM 39.0480 81.8816 219° Southwest  Level Estimated
08:24AM 38.9712 81.8018 219° Southwest  Level Estimated
08:25AM 38.8944 81.7222 219° Southwest  Level Estimated
08:26AM 38.8175 81.6428 219° Southwest  Level Estimated
08:27AM 38.7406 81.5635 219° Southwest  Level Estimated
08:28AM 38.6636 81.4845 219° Southwest  Level Estimated
08:29AM 38.5866 81.4055 219° Southwest  Level Estimated
08:30AM 38.5095 81.3268 219° Southwest  Level Estimated
08:31AM 38.4324 81.2482 219° Southwest  Level Estimated
08:32AM 38.3552 81.1698 219° Southwest  Level Estimated
08:33AM 38.2780 81.0916 219° Southwest  Level Estimated
08:34AM 38.2007 81.0135 218° Southwest  Level Estimated
08:35AM 38.1233 80.9356 218° Southwest  Level Estimated
08:36AM 38.0460 80.8578 218° Southwest  Level Estimated
08:37AM 37.9685 80.7802 218° Southwest  Level Estimated
08:38AM 37.8910 80.7028 218° Southwest  Level Estimated
08:39AM 37.8135 80.6256 218° Southwest  Level Estimated
08:40AM 37.7359 80.5485 218° Southwest  Level Estimated
08:41AM 37.6582 80.4715 218° Southwest  Level Estimated
08:42AM 37.5806 80.3948 218° Southwest  Level Estimated
08:43AM 37.5028 80.3182 218° Southwest  Level Estimated
08:44AM 37.4250 80.2417 218° Southwest  Level Estimated
08:45AM 37.3472 80.1654 218° Southwest  Level Estimated
08:46AM 37.2693 80.0893 218° Southwest  Level Estimated
08:47AM 37.1913 80.0133 218° Southwest  Level Estimated
08:48AM 37.1134 79.9375 218° Southwest  Level Estimated
08:49AM 37.0385 79.8649 218° Southwest  Level Estimated
08:50AM 37.0385 79.8649 50° Northeast  Level Estimated
08:51AM 37.0385 79.8649 50° Northeast  Level Estimated
08:52AM 37.0385 79.8649 50° Northeast  Level Estimated
08:53AM 37.0385 79.8649 50° Northeast  Level Estimated
08:54AM 37.0385 79.8649 50° Northeast  Level Estimated
08:55AM 37.0385 79.8649 50° Northeast  Level Estimated
08:56AM 37.0385 79.8649 50° Northeast  Level Estimated